Time;durP1;ratioP1;P1;durP2;ratioP2;P2;SDS_P1;SDS_P2;PMS_P1;PMS_P2;Temp;Humidity;BMP_temperature;BMP_pressure;BME280_temperature;BME280_humidity;BME280_pressure;Samples;Min_cycle;Max_cycle;Signal;HPM_P1;HPM_P2
2021/05/29 00:01:00;;;;;;;2.70;2.50;;;;;;;;;;5080727;28;20475;-78
2021/05/29 00:03:27;;;;;;;3.20;2.83;;;;;;;;;;5081407;28;20440;-78
2021/05/29 00:05:54;;;;;;;4.57;3.53;;;;;;;;;;5082975;28;20471;-78
2021/05/29 00:08:20;;;;;;;3.17;2.50;;;;;;;;;;5067867;28;20429;-78
2021/05/29 00:10:48;;;;;;;6.20;3.07;;;;;;;;;;5089907;28;20495;-78
2021/05/29 00:13:14;;;;;;;6.40;3.10;;;;;;;;;;5089622;28;20464;-78
2021/05/29 00:15:40;;;;;;;3.70;3.00;;;;;;;;;;5081844;28;20448;-77
2021/05/29 00:18:07;;;;;;;8.17;2.50;;;;;;;;;;5096474;28;20519;-77
2021/05/29 00:20:34;;;;;;;5.33;3.00;;;;;;;;;;5081435;28;20950;-78
2021/05/29 00:23:00;;;;;;;3.90;3.03;;;;;;;;;;5079580;28;20452;-78
2021/05/29 00:25:26;;;;;;;3.47;3.00;;;;;;;;;;5082550;28;20464;-78
2021/05/29 00:27:52;;;;;;;5.77;2.70;;;;;;;;;;5091035;28;20436;-78
2021/05/29 00:30:18;;;;;;;3.87;2.90;;;;;;;;;;5084421;28;20569;-78
2021/05/29 00:32:44;;;;;;;3.43;3.10;;;;;;;;;;5090885;28;20470;-78
2021/05/29 00:35:11;;;;;;;4.57;3.00;;;;;;;;;;5081026;28;20444;-78
2021/05/29 00:37:37;;;;;;;4.10;3.00;;;;;;;;;;5086524;28;20432;-78
2021/05/29 00:40:04;;;;;;;4.63;2.90;;;;;;;;;;5089661;28;20435;-77
2021/05/29 00:42:30;;;;;;;4.40;2.47;;;;;;;;;;5094564;28;21026;-78
2021/05/29 00:44:58;;;;;;;5.27;3.10;;;;;;;;;;5092717;28;20460;-78
2021/05/29 00:47:25;;;;;;;5.50;3.10;;;;;;;;;;5083496;28;20465;-76
2021/05/29 00:49:52;;;;;;;3.20;2.47;;;;;;;;;;5096223;28;20485;-78
2021/05/29 00:52:19;;;;;;;3.27;2.97;;;;;;;;;;5097756;28;20452;-78
2021/05/29 00:54:45;;;;;;;3.07;2.50;;;;;;;;;;5095213;28;20453;-78
2021/05/29 00:57:12;;;;;;;3.77;2.67;;;;;;;;;;5085810;28;20820;-78
2021/05/29 00:59:38;;;;;;;7.70;2.87;;;;;;;;;;5087975;28;20437;-78
2021/05/29 01:02:05;;;;;;;4.27;3.10;;;;;;;;;;5090425;28;20451;-78
2021/05/29 01:04:31;;;;;;;5.00;2.67;;;;;;;;;;5092933;28;20431;-78
2021/05/29 01:06:57;;;;;;;3.47;2.60;;;;;;;;;;5098949;28;20532;-78
2021/05/29 01:09:24;;;;;;;3.67;2.80;;;;;;;;;;5094468;28;21376;-78
2021/05/29 01:11:51;;;;;;;4.30;2.37;;;;;;;;;;5074211;28;20448;-78
2021/05/29 01:14:17;;;;;;;3.50;3.20;;;;;;;;;;5089487;28;20443;-78
2021/05/29 01:16:53;;;;;;;2.97;2.50;;;;;;;;;;5092201;28;20821;-78
2021/05/29 01:19:20;;;;;;;2.50;2.00;;;;;;;;;;5082300;28;20440;-77
2021/05/29 01:21:46;;;;;;;2.40;2.13;;;;;;;;;;5083710;28;20828;-77
2021/05/29 01:24:12;;;;;;;2.97;2.40;;;;;;;;;;5082292;28;20942;-78
2021/05/29 01:26:38;;;;;;;3.30;2.20;;;;;;;;;;5090247;28;20615;-78
2021/05/29 01:29:04;;;;;;;2.53;2.17;;;;;;;;;;5093747;28;20538;-78
2021/05/29 01:31:32;;;;;;;2.83;2.50;;;;;;;;;;5097516;28;20452;-79
2021/05/29 01:33:59;;;;;;;5.00;3.17;;;;;;;;;;5090724;28;20480;-79
2021/05/29 01:36:25;;;;;;;3.27;2.33;;;;;;;;;;5091764;28;20476;-78
2021/05/29 01:38:52;;;;;;;4.40;2.50;;;;;;;;;;5086814;28;20435;-78
2021/05/29 01:41:19;;;;;;;3.87;2.30;;;;;;;;;;5086990;28;20459;-78
2021/05/29 01:43:46;;;;;;;3.00;2.57;;;;;;;;;;5097990;28;20432;-78
2021/05/29 01:46:13;;;;;;;4.37;2.83;;;;;;;;;;5077320;28;20472;-77
2021/05/29 01:48:46;;;;;;;2.80;2.07;;;;;;;;;;5094465;28;20945;-78
2021/05/29 01:51:13;;;;;;;2.60;2.40;;;;;;;;;;5078932;28;20514;-77
2021/05/29 01:53:39;;;;;;;4.27;2.33;;;;;;;;;;5085881;28;20477;-77
2021/05/29 01:56:06;;;;;;;3.60;2.50;;;;;;;;;;5083541;28;20431;-78
2021/05/29 01:58:32;;;;;;;2.87;2.30;;;;;;;;;;5078812;28;20432;-78
2021/05/29 02:00:58;;;;;;;2.60;2.40;;;;;;;;;;5092158;28;20568;-78
2021/05/29 02:03:24;;;;;;;2.73;2.30;;;;;;;;;;5080546;28;20874;-77
2021/05/29 02:05:50;;;;;;;3.53;2.47;;;;;;;;;;5076843;28;20471;-77
2021/05/29 02:08:17;;;;;;;2.17;1.83;;;;;;;;;;5080175;28;20433;-79
2021/05/29 02:10:44;;;;;;;2.40;2.20;;;;;;;;;;5092317;28;21141;-78
2021/05/29 02:13:20;;;;;;;6.80;3.10;;;;;;;;;;5079729;28;20552;-78
2021/05/29 02:15:47;;;;;;;2.30;2.10;;;;;;;;;;5098702;28;20435;-78
2021/05/29 02:18:13;;;;;;;3.53;2.00;;;;;;;;;;5095273;28;20441;-77
2021/05/29 02:20:40;;;;;;;4.03;2.53;;;;;;;;;;5097792;28;20435;-78
2021/05/29 02:23:07;;;;;;;2.53;2.10;;;;;;;;;;5090850;27;20474;-78
2021/05/29 02:25:33;;;;;;;2.53;2.33;;;;;;;;;;5093593;28;20464;-77
2021/05/29 02:28:00;;;;;;;2.70;2.17;;;;;;;;;;5079672;28;20433;-78
2021/05/29 02:30:26;;;;;;;3.33;2.80;;;;;;;;;;5086879;28;20432;-77
2021/05/29 02:32:52;;;;;;;3.60;2.30;;;;;;;;;;5094348;28;20438;-79
2021/05/29 02:35:18;;;;;;;2.63;2.20;;;;;;;;;;5085263;28;20443;-78
2021/05/29 02:37:44;;;;;;;9.77;2.50;;;;;;;;;;5086154;28;20433;-78
2021/05/29 02:40:11;;;;;;;2.20;2.00;;;;;;;;;;5077511;28;20419;-78
2021/05/29 02:42:37;;;;;;;2.60;1.73;;;;;;;;;;5123661;27;20457;-79
2021/05/29 02:45:04;;;;;;;3.73;2.93;;;;;;;;;;5094890;28;20436;-78
2021/05/29 02:47:30;;;;;;;2.47;2.27;;;;;;;;;;5077068;28;20850;-78
2021/05/29 02:49:56;;;;;;;3.23;2.57;;;;;;;;;;5085700;28;21002;-79
2021/05/29 02:52:22;;;;;;;4.57;2.50;;;;;;;;;;5080551;28;20550;-78
2021/05/29 02:54:48;;;;;;;2.90;1.97;;;;;;;;;;5080898;28;20440;-78
2021/05/29 02:57:14;;;;;;;2.80;2.20;;;;;;;;;;5089489;28;20439;-78
2021/05/29 02:59:40;;;;;;;4.83;2.23;;;;;;;;;;5080804;28;20440;-78
2021/05/29 03:02:08;;;;;;;2.73;1.90;;;;;;;;;;5080605;28;20456;-78
2021/05/29 03:04:34;;;;;;;2.40;2.13;;;;;;;;;;5093351;28;20432;-77
2021/05/29 03:07:00;;;;;;;3.13;2.40;;;;;;;;;;5084171;28;20469;-78
2021/05/29 03:09:26;;;;;;;3.70;2.10;;;;;;;;;;5083003;28;20431;-78
2021/05/29 03:11:52;;;;;;;4.33;2.73;;;;;;;;;;5080287;28;20832;-77
2021/05/29 03:14:18;;;;;;;2.90;2.03;;;;;;;;;;5090771;28;20436;-77
2021/05/29 03:16:44;;;;;;;2.33;2.10;;;;;;;;;;5105844;27;20431;-77
2021/05/29 03:19:10;;;;;;;1.80;1.60;;;;;;;;;;5095888;27;20531;-77
2021/05/29 03:21:36;;;;;;;4.57;2.70;;;;;;;;;;5095393;28;21069;-78
2021/05/29 03:24:02;;;;;;;4.57;2.30;;;;;;;;;;5089466;28;21241;-78
2021/05/29 03:26:28;;;;;;;2.20;1.90;;;;;;;;;;5093669;28;20518;-78
2021/05/29 03:28:54;;;;;;;3.73;2.40;;;;;;;;;;5091013;28;20438;-76
2021/05/29 03:31:20;;;;;;;3.00;2.00;;;;;;;;;;5094565;28;20526;-77
2021/05/29 03:33:46;;;;;;;2.30;2.07;;;;;;;;;;5086629;28;20425;-78
2021/05/29 03:36:12;;;;;;;2.60;2.23;;;;;;;;;;5078321;28;20428;-78
2021/05/29 03:38:41;;;;;;;3.67;2.17;;;;;;;;;;5086761;28;20433;-77
2021/05/29 03:41:07;;;;;;;3.17;2.27;;;;;;;;;;5108062;28;20776;-77
2021/05/29 03:43:33;;;;;;;3.93;2.20;;;;;;;;;;5099644;28;20451;-78
2021/05/29 03:45:59;;;;;;;4.20;2.27;;;;;;;;;;5086136;28;20452;-77
2021/05/29 03:48:25;;;;;;;3.67;1.83;;;;;;;;;;5092532;28;20439;-78
2021/05/29 03:50:51;;;;;;;2.60;2.40;;;;;;;;;;5085948;28;20869;-78
2021/05/29 03:53:17;;;;;;;3.20;2.40;;;;;;;;;;5086599;28;20428;-78
2021/05/29 03:55:43;;;;;;;3.00;2.20;;;;;;;;;;5078123;28;21015;-78
2021/05/29 03:58:09;;;;;;;2.10;1.90;;;;;;;;;;5075610;28;20449;-78
2021/05/29 04:00:35;;;;;;;4.60;2.93;;;;;;;;;;5092468;28;20460;-77
2021/05/29 04:03:02;;;;;;;2.90;2.40;;;;;;;;;;5099891;28;20535;-77
2021/05/29 04:05:28;;;;;;;3.07;2.50;;;;;;;;;;5084665;28;20479;-78
2021/05/29 04:07:54;;;;;;;3.33;2.37;;;;;;;;;;5095033;28;20441;-78
2021/05/29 04:10:24;;;;;;;2.87;2.20;;;;;;;;;;5075541;28;20542;-78
2021/05/29 04:12:51;;;;;;;3.30;2.10;;;;;;;;;;5093727;28;20479;-77
2021/05/29 04:15:18;;;;;;;2.60;2.40;;;;;;;;;;5092040;28;20435;-78
2021/05/29 04:17:47;;;;;;;1.80;1.67;;;;;;;;;;5101488;28;20528;-77
2021/05/29 04:20:16;;;;;;;3.70;2.43;;;;;;;;;;5087966;28;20431;-78
2021/05/29 04:22:42;;;;;;;3.67;2.40;;;;;;;;;;5087442;28;20854;-77
2021/05/29 04:25:10;;;;;;;3.57;2.93;;;;;;;;;;5085862;28;20447;-78
2021/05/29 04:27:36;;;;;;;2.13;1.83;;;;;;;;;;5093907;28;20430;-78
2021/05/29 04:30:04;;;;;;;2.37;2.17;;;;;;;;;;5081298;28;20433;-78
2021/05/29 04:32:30;;;;;;;4.43;2.67;;;;;;;;;;5089722;28;20542;-77
2021/05/29 04:34:56;;;;;;;3.80;2.00;;;;;;;;;;5082870;28;20440;-78
2021/05/29 04:37:22;;;;;;;2.60;2.20;;;;;;;;;;5094916;28;20437;-78
2021/05/29 04:39:48;;;;;;;3.10;2.30;;;;;;;;;;5091973;28;20532;-78
2021/05/29 04:42:14;;;;;;;3.40;2.70;;;;;;;;;;5106841;27;20452;-78
2021/05/29 04:44:40;;;;;;;3.10;2.40;;;;;;;;;;5098065;27;20514;-78
2021/05/29 04:47:06;;;;;;;2.50;2.27;;;;;;;;;;5096296;28;20472;-78
2021/05/29 04:49:32;;;;;;;2.33;2.10;;;;;;;;;;5090914;28;20444;-77
2021/05/29 04:51:58;;;;;;;2.70;2.20;;;;;;;;;;5102838;27;20448;-77
2021/05/29 04:54:24;;;;;;;2.70;1.57;;;;;;;;;;5090661;28;20428;-77
2021/05/29 04:56:50;;;;;;;5.03;3.00;;;;;;;;;;5084458;28;20822;-77
2021/05/29 04:59:16;;;;;;;2.87;2.23;;;;;;;;;;5089389;28;20429;-77
2021/05/29 05:01:42;;;;;;;3.33;2.60;;;;;;;;;;5102512;27;21056;-77
2021/05/29 05:04:09;;;;;;;2.80;2.27;;;;;;;;;;5081226;28;20451;-78
2021/05/29 05:06:36;;;;;;;2.63;1.80;;;;;;;;;;5084581;28;21054;-77
2021/05/29 05:09:03;;;;;;;3.70;2.70;;;;;;;;;;5077249;28;20833;-77
2021/05/29 05:11:29;;;;;;;1.80;1.57;;;;;;;;;;5090655;28;20459;-77
2021/05/29 05:13:55;;;;;;;3.00;2.33;;;;;;;;;;5096998;28;20436;-77
2021/05/29 05:16:21;;;;;;;3.87;2.20;;;;;;;;;;5098597;27;20453;-77
2021/05/29 05:18:47;;;;;;;4.70;2.30;;;;;;;;;;5082957;28;20849;-77
2021/05/29 05:21:13;;;;;;;2.17;1.87;;;;;;;;;;5094799;28;20839;-77
2021/05/29 05:23:39;;;;;;;4.53;2.23;;;;;;;;;;5081086;28;20466;-77
2021/05/29 05:26:06;;;;;;;2.77;2.00;;;;;;;;;;5091721;28;20460;-77
2021/05/29 05:28:32;;;;;;;2.47;1.63;;;;;;;;;;5084030;28;20498;-78
2021/05/29 05:30:59;;;;;;;2.20;1.87;;;;;;;;;;5080206;28;20869;-77
2021/05/29 05:33:26;;;;;;;1.30;1.20;;;;;;;;;;5105641;27;20523;-77
2021/05/29 05:35:52;;;;;;;2.03;1.63;;;;;;;;;;5084911;28;20443;-77
2021/05/29 05:38:18;;;;;;;2.60;2.30;;;;;;;;;;5096767;28;20859;-77
2021/05/29 05:40:44;;;;;;;1.73;1.63;;;;;;;;;;5089848;28;20433;-78
2021/05/29 05:43:10;;;;;;;2.00;1.10;;;;;;;;;;5098634;27;20436;-78
2021/05/29 05:45:37;;;;;;;1.80;1.40;;;;;;;;;;5104383;28;20486;-77
2021/05/29 05:48:03;;;;;;;1.30;1.20;;;;;;;;;;5085947;28;20440;-77
2021/05/29 05:50:29;;;;;;;1.37;1.07;;;;;;;;;;5088017;28;20460;-77
2021/05/29 05:52:55;;;;;;;4.63;1.30;;;;;;;;;;5089491;28;20432;-77
2021/05/29 05:55:21;;;;;;;2.03;1.63;;;;;;;;;;5088105;28;21222;-77
2021/05/29 05:57:47;;;;;;;1.30;1.20;;;;;;;;;;5086199;28;20962;-78
2021/05/29 06:00:15;;;;;;;2.37;1.20;;;;;;;;;;5084844;28;20441;-77
2021/05/29 06:02:46;;;;;;;2.13;1.33;;;;;;;;;;5101010;28;20455;-78
2021/05/29 06:05:12;;;;;;;1.33;1.20;;;;;;;;;;5088483;28;20428;-77
2021/05/29 06:07:38;;;;;;;1.57;1.20;;;;;;;;;;5091688;28;20555;-77
2021/05/29 06:10:05;;;;;;;0.80;0.80;;;;;;;;;;5085082;28;20953;-77
2021/05/29 06:12:34;;;;;;;1.57;1.30;;;;;;;;;;5084108;28;20489;-77
2021/05/29 06:18:11;;;;;;;1.53;1.00;;;;;;;;;;5084724;28;20432;-77
2021/05/29 06:20:41;;;;;;;1.10;1.00;;;;;;;;;;5080539;28;20480;-77
2021/05/29 06:23:07;;;;;;;2.00;1.30;;;;;;;;;;5090091;28;20421;-77
2021/05/29 06:25:33;;;;;;;1.03;0.97;;;;;;;;;;5103726;28;20460;-77
2021/05/29 06:27:59;;;;;;;2.00;1.33;;;;;;;;;;5088501;28;20493;-77
2021/05/29 06:30:25;;;;;;;1.00;1.00;;;;;;;;;;5084410;28;20931;-77
2021/05/29 06:32:51;;;;;;;1.13;1.07;;;;;;;;;;5074118;28;20449;-78
2021/05/29 06:35:17;;;;;;;1.60;1.30;;;;;;;;;;5094864;28;20439;-77
2021/05/29 06:37:43;;;;;;;1.60;0.90;;;;;;;;;;5090288;28;20455;-77
2021/05/29 06:40:09;;;;;;;1.47;1.23;;;;;;;;;;5080400;28;20439;-76
2021/05/29 06:42:35;;;;;;;1.10;1.00;;;;;;;;;;5083720;28;20460;-77
2021/05/29 06:45:02;;;;;;;1.10;1.00;;;;;;;;;;5080334;28;20424;-77
2021/05/29 06:47:28;;;;;;;2.30;2.10;;;;;;;;;;5081776;28;20472;-76
2021/05/29 06:49:54;;;;;;;1.40;1.30;;;;;;;;;;5100223;28;20439;-76
2021/05/29 06:52:23;;;;;;;1.93;1.30;;;;;;;;;;5092096;28;21102;-76
2021/05/29 07:00:10;;;;;;;1.50;1.40;;;;;;;;;;5076945;28;20423;-77
2021/05/29 07:02:36;;;;;;;1.60;1.00;;;;;;;;;;5092784;28;21243;-76
2021/05/29 07:05:06;;;;;;;3.30;1.40;;;;;;;;;;5078635;28;20436;-77
2021/05/29 07:07:32;;;;;;;4.57;1.13;;;;;;;;;;5079674;28;20471;-76
2021/05/29 07:09:58;;;;;;;1.30;1.20;;;;;;;;;;5081137;28;20448;-77
2021/05/29 07:12:25;;;;;;;0.90;0.90;;;;;;;;;;5076232;28;20456;-77
2021/05/29 07:14:51;;;;;;;1.33;1.23;;;;;;;;;;5088868;28;20452;-76
2021/05/29 07:17:17;;;;;;;1.20;1.17;;;;;;;;;;5083585;28;20432;-77
2021/05/29 07:19:43;;;;;;;1.73;1.43;;;;;;;;;;5100464;27;20432;-75
2021/05/29 07:22:09;;;;;;;1.53;1.13;;;;;;;;;;5081288;28;20534;-76
2021/05/29 07:24:35;;;;;;;1.53;1.07;;;;;;;;;;5080012;28;20664;-77
2021/05/29 07:27:01;;;;;;;1.00;1.00;;;;;;;;;;5077135;28;20468;-75
2021/05/29 07:29:27;;;;;;;1.57;1.10;;;;;;;;;;5078857;28;20433;-76
2021/05/29 07:31:54;;;;;;;1.20;1.07;;;;;;;;;;5073187;28;20539;-76
2021/05/29 07:34:20;;;;;;;1.43;1.10;;;;;;;;;;5077473;28;20432;-75
2021/05/29 07:36:46;;;;;;;1.93;1.40;;;;;;;;;;5081322;28;20873;-77
2021/05/29 07:39:13;;;;;;;1.50;0.90;;;;;;;;;;5078807;28;20498;-76
2021/05/29 07:41:39;;;;;;;2.20;1.07;;;;;;;;;;5071126;28;20812;-77
2021/05/29 07:44:07;;;;;;;1.50;1.20;;;;;;;;;;5082034;28;21010;-78
2021/05/29 07:46:34;;;;;;;1.30;1.20;;;;;;;;;;5077648;28;20853;-77
2021/05/29 07:49:00;;;;;;;1.20;1.10;;;;;;;;;;5074622;28;20429;-77
2021/05/29 07:51:26;;;;;;;1.23;1.13;;;;;;;;;;5077269;28;20460;-75
2021/05/29 07:53:53;;;;;;;1.67;1.47;;;;;;;;;;5077364;28;20532;-77
2021/05/29 07:56:20;;;;;;;0.90;0.90;;;;;;;;;;5070759;28;20441;-76
2021/05/29 07:58:50;;;;;;;0.90;0.90;;;;;;;;;;5084887;28;25124;-76
2021/05/29 08:01:16;;;;;;;0.97;0.97;;;;;;;;;;5086910;28;20455;-76
2021/05/29 08:03:43;;;;;;;1.27;1.03;;;;;;;;;;5086439;28;21098;-76
2021/05/29 08:06:17;;;;;;;1.90;1.30;;;;;;;;;;5079528;28;20562;-76
2021/05/29 08:08:44;;;;;;;1.17;1.07;;;;;;;;;;5074856;28;20463;-77
2021/05/29 08:11:44;;;;;;;2.10;1.30;;;;;;;;;;5078588;28;20448;-75
2021/05/29 08:14:03;;;;;;;1.70;1.43;;;;;;;;;;5065581;28;20449;-76
2021/05/29 08:16:30;;;;;;;0.80;0.77;;;;;;;;;;5085305;28;20530;-76
2021/05/29 08:18:56;;;;;;;1.13;1.00;;;;;;;;;;5105969;28;20815;-75
2021/05/29 08:21:22;;;;;;;1.53;1.30;;;;;;;;;;5070183;28;20452;-74
2021/05/29 08:23:49;;;;;;;0.97;0.97;;;;;;;;;;5073209;28;20452;-76
2021/05/29 08:26:15;;;;;;;1.00;0.90;;;;;;;;;;5090274;28;20473;-76
2021/05/29 08:28:44;;;;;;;1.33;1.23;;;;;;;;;;5080708;28;21430;-76
2021/05/29 08:31:10;;;;;;;1.57;1.10;;;;;;;;;;5089167;28;21043;-75
2021/05/29 08:33:36;;;;;;;1.20;1.10;;;;;;;;;;5088823;28;20456;-75
2021/05/29 08:36:02;;;;;;;1.13;1.03;;;;;;;;;;5081875;28;20947;-76
2021/05/29 08:38:28;;;;;;;1.50;0.93;;;;;;;;;;5091176;28;20494;-76
2021/05/29 08:40:54;;;;;;;2.40;1.50;;;;;;;;;;5075899;28;20472;-75
2021/05/29 08:43:20;;;;;;;2.33;2.10;;;;;;;;;;5091892;28;20451;-76
2021/05/29 08:45:46;;;;;;;1.60;1.23;;;;;;;;;;5085532;28;20555;-76
2021/05/29 08:48:12;;;;;;;1.63;1.33;;;;;;;;;;5075360;28;20441;-77
2021/05/29 08:51:12;;;;;;;1.40;1.23;;;;;;;;;;5098711;28;20450;-77
2021/05/29 08:53:25;;;;;;;1.10;1.10;;;;;;;;;;5069351;28;20517;-76
2021/05/29 08:55:53;;;;;;;0.90;0.90;;;;;;;;;;5087829;28;20441;-75
2021/05/29 08:58:19;;;;;;;1.10;1.00;;;;;;;;;;5074917;28;20902;-76
2021/05/29 09:00:45;;;;;;;0.80;0.80;;;;;;;;;;5094245;28;20448;-76
2021/05/29 09:03:11;;;;;;;1.27;1.20;;;;;;;;;;5080011;28;20440;-75
2021/05/29 09:05:37;;;;;;;1.00;0.83;;;;;;;;;;5096589;28;20464;-76
2021/05/29 09:08:04;;;;;;;2.20;1.47;;;;;;;;;;5085813;28;20428;-76
2021/05/29 09:10:30;;;;;;;1.50;1.40;;;;;;;;;;5089105;28;20432;-76
2021/05/29 09:13:07;;;;;;;1.50;1.40;;;;;;;;;;5078684;28;20934;-77
2021/05/29 09:15:52;;;;;;;2.40;1.40;;;;;;;;;;5086006;28;20443;-77
2021/05/29 09:18:36;;;;;;;1.10;1.00;;;;;;;;;;5094214;28;20441;-76
2021/05/29 09:21:22;;;;;;;1.40;1.13;;;;;;;;;;5090665;28;20491;-76
2021/05/29 09:23:53;;;;;;;1.20;0.97;;;;;;;;;;5089355;27;20453;-77
2021/05/29 09:26:23;;;;;;;2.50;1.40;;;;;;;;;;5097009;28;20990;-77
2021/05/29 09:28:50;;;;;;;0.97;0.97;;;;;;;;;;5091972;28;20525;-77
2021/05/29 09:31:17;;;;;;;1.40;1.30;;;;;;;;;;5095783;28;20464;-77
2021/05/29 09:33:43;;;;;;;1.23;1.13;;;;;;;;;;5095652;28;20441;-77
2021/05/29 09:36:11;;;;;;;1.60;1.27;;;;;;;;;;5096667;28;20818;-77
2021/05/29 09:38:44;;;;;;;1.87;1.13;;;;;;;;;;5077235;28;20434;-77
2021/05/29 09:41:22;;;;;;;1.73;1.20;;;;;;;;;;5094799;28;20456;-77
2021/05/29 09:43:59;;;;;;;1.37;1.27;;;;;;;;;;5084232;28;20580;-76
2021/05/29 09:46:26;;;;;;;2.23;1.43;;;;;;;;;;5091388;28;20478;-76
2021/05/29 09:48:54;;;;;;;1.97;1.10;;;;;;;;;;5079472;28;20444;-76
2021/05/29 09:51:20;;;;;;;2.10;1.23;;;;;;;;;;5083524;28;20464;-76
2021/05/29 09:53:53;;;;;;;1.43;1.33;;;;;;;;;;5072943;28;20440;-76
2021/05/29 09:56:34;;;;;;;1.43;1.33;;;;;;;;;;5078689;28;20939;-76
2021/05/29 09:59:01;;;;;;;1.47;1.37;;;;;;;;;;5080047;28;20444;-76
2021/05/29 10:01:36;;;;;;;1.50;1.40;;;;;;;;;;5085651;28;21017;-76
2021/05/29 10:04:03;;;;;;;1.20;1.10;;;;;;;;;;5103714;27;20443;-76
2021/05/29 10:06:29;;;;;;;1.27;1.17;;;;;;;;;;5079399;28;20479;-76
2021/05/29 10:08:55;;;;;;;1.27;1.17;;;;;;;;;;5081214;28;20949;-75
2021/05/29 10:11:22;;;;;;;1.90;1.73;;;;;;;;;;5089940;28;20467;-76
2021/05/29 10:13:48;;;;;;;1.40;1.30;;;;;;;;;;5092175;28;20436;-75
2021/05/29 10:16:14;;;;;;;1.47;1.37;;;;;;;;;;5081926;28;21066;-76
2021/05/29 10:18:42;;;;;;;0.90;0.90;;;;;;;;;;5078005;28;20443;-75
2021/05/29 10:21:08;;;;;;;1.50;1.27;;;;;;;;;;5083488;28;20600;-74
2021/05/29 10:23:36;;;;;;;2.50;0.90;;;;;;;;;;5090003;28;20551;-75
2021/05/29 10:26:03;;;;;;;1.37;1.27;;;;;;;;;;5096081;28;20490;-76
2021/05/29 10:28:30;;;;;;;1.80;1.30;;;;;;;;;;5087958;28;20440;-76
2021/05/29 10:30:56;;;;;;;1.70;1.17;;;;;;;;;;5082882;28;20452;-75
2021/05/29 10:33:23;;;;;;;1.50;1.40;;;;;;;;;;5083579;28;20429;-76
2021/05/29 10:35:50;;;;;;;1.73;1.30;;;;;;;;;;5078870;28;20441;-76
2021/05/29 10:38:16;;;;;;;2.33;1.83;;;;;;;;;;5099559;28;20441;-76
2021/05/29 10:40:47;;;;;;;1.10;1.00;;;;;;;;;;5085443;28;20519;-76
2021/05/29 10:43:15;;;;;;;4.37;1.20;;;;;;;;;;5077475;28;21082;-76
2021/05/29 10:45:50;;;;;;;2.87;1.47;;;;;;;;;;5082599;28;20488;-76
2021/05/29 10:48:17;;;;;;;3.30;1.73;;;;;;;;;;5084903;28;20437;-76
2021/05/29 10:53:34;;;;;;;1.90;1.20;;;;;;;;;;5067920;28;20471;-77
2021/05/29 10:56:16;;;;;;;1.80;1.50;;;;;;;;;;5094575;27;20481;-77
2021/05/29 10:59:01;;;;;;;2.90;1.00;;;;;;;;;;5087394;28;20424;-77
2021/05/29 11:01:36;;;;;;;2.27;1.13;;;;;;;;;;5104398;28;20488;-77
2021/05/29 11:04:15;;;;;;;1.30;1.20;;;;;;;;;;5081613;28;20440;-76
2021/05/29 11:06:42;;;;;;;1.37;1.27;;;;;;;;;;5104152;28;20456;-77
2021/05/29 11:09:08;;;;;;;1.50;1.40;;;;;;;;;;5070318;28;20446;-77
2021/05/29 11:14:13;;;;;;;2.33;1.30;;;;;;;;;;5078423;28;20433;-77
2021/05/29 11:16:52;;;;;;;1.50;1.40;;;;;;;;;;5099683;28;20432;-77
2021/05/29 11:19:24;;;;;;;1.47;1.30;;;;;;;;;;5101613;28;20535;-77
2021/05/29 11:22:10;;;;;;;2.97;1.57;;;;;;;;;;5090329;28;20450;-77
2021/05/29 11:24:41;;;;;;;1.73;1.27;;;;;;;;;;5085511;28;20570;-77
2021/05/29 11:27:09;;;;;;;1.10;1.10;;;;;;;;;;5073996;28;20460;-76
2021/05/29 11:29:50;;;;;;;2.33;2.13;;;;;;;;;;5093772;28;20449;-76
2021/05/29 11:32:33;;;;;;;2.47;1.90;;;;;;;;;;5097262;28;20513;-76
2021/05/29 11:34:59;;;;;;;1.70;0.90;;;;;;;;;;5084502;28;20478;-76
2021/05/29 11:37:25;;;;;;;1.63;1.50;;;;;;;;;;5071940;28;20606;-76
2021/05/29 11:39:57;;;;;;;1.80;1.70;;;;;;;;;;5078663;28;21141;-75
2021/05/29 11:42:23;;;;;;;2.30;1.87;;;;;;;;;;5086356;28;21127;-76
2021/05/29 11:44:49;;;;;;;2.17;1.90;;;;;;;;;;5086437;28;20440;-77
2021/05/29 11:47:16;;;;;;;1.47;1.37;;;;;;;;;;5101836;28;20473;-77
2021/05/29 11:49:43;;;;;;;1.50;1.40;;;;;;;;;;5083812;28;20945;-76
2021/05/29 11:52:09;;;;;;;1.57;1.30;;;;;;;;;;5071339;28;20947;-77
2021/05/29 11:54:36;;;;;;;1.43;1.30;;;;;;;;;;5086742;28;20435;-76
2021/05/29 11:57:03;;;;;;;2.77;1.53;;;;;;;;;;5080168;28;20444;-76
2021/05/29 11:59:29;;;;;;;1.60;1.43;;;;;;;;;;5068013;28;20438;-76
2021/05/29 12:01:55;;;;;;;1.43;1.20;;;;;;;;;;5095733;28;20456;-77
2021/05/29 12:04:25;;;;;;;1.37;1.27;;;;;;;;;;5076724;28;20444;-75
2021/05/29 12:06:54;;;;;;;1.37;1.27;;;;;;;;;;5080303;28;20980;-76
2021/05/29 12:09:23;;;;;;;1.63;1.53;;;;;;;;;;5083535;28;20436;-76
2021/05/29 12:11:59;;;;;;;1.73;1.40;;;;;;;;;;5096969;28;21165;-77
2021/05/29 12:14:26;;;;;;;1.80;1.70;;;;;;;;;;5084936;28;20428;-76
2021/05/29 12:16:54;;;;;;;1.90;1.80;;;;;;;;;;5102470;28;20452;-76
2021/05/29 12:19:26;;;;;;;2.47;1.80;;;;;;;;;;5088448;28;20433;-76
2021/05/29 12:21:54;;;;;;;1.50;1.40;;;;;;;;;;5077660;28;20457;-76
2021/05/29 12:24:20;;;;;;;1.40;1.30;;;;;;;;;;5074742;28;20457;-77
2021/05/29 12:26:46;;;;;;;1.50;1.40;;;;;;;;;;5083015;28;20456;-77
2021/05/29 12:29:14;;;;;;;1.50;1.33;;;;;;;;;;5079649;28;20435;-77
2021/05/29 12:31:53;;;;;;;1.10;1.10;;;;;;;;;;5075914;28;20455;-78
2021/05/29 12:34:20;;;;;;;4.30;1.60;;;;;;;;;;5078011;28;20537;-77
2021/05/29 12:36:56;;;;;;;2.93;1.60;;;;;;;;;;5086844;28;20442;-73
2021/05/29 12:39:23;;;;;;;1.73;1.50;;;;;;;;;;5083839;28;20436;-72
2021/05/29 12:41:49;;;;;;;1.27;1.17;;;;;;;;;;5097076;28;20457;-73
2021/05/29 12:44:15;;;;;;;3.53;1.33;;;;;;;;;;5084237;28;20436;-72
2021/05/29 12:46:41;;;;;;;1.33;1.20;;;;;;;;;;5069188;28;20551;-74
2021/05/29 12:49:09;;;;;;;1.30;1.20;;;;;;;;;;5097173;28;20931;-74
2021/05/29 12:51:39;;;;;;;1.70;1.30;;;;;;;;;;5074021;28;20651;-75
2021/05/29 12:54:05;;;;;;;7.00;1.33;;;;;;;;;;5081865;28;20951;-75
2021/05/29 12:56:31;;;;;;;1.23;1.13;;;;;;;;;;5088420;28;20526;-75
2021/05/29 12:59:00;;;;;;;2.13;1.37;;;;;;;;;;5088770;28;20913;-75
2021/05/29 13:01:54;;;;;;;1.30;1.27;;;;;;;;;;5083506;28;20914;-75
2021/05/29 13:07:26;;;;;;;3.87;1.70;;;;;;;;;;5086260;28;20532;-76
2021/05/29 13:12:38;;;;;;;1.87;1.60;;;;;;;;;;5078336;28;20836;-75
2021/05/29 13:15:15;;;;;;;2.00;1.43;;;;;;;;;;5075275;28;20964;-76
2021/05/29 13:17:41;;;;;;;1.20;1.10;;;;;;;;;;5083311;28;20432;-75
2021/05/29 13:20:14;;;;;;;2.50;1.50;;;;;;;;;;5082085;28;20972;-75
2021/05/29 13:22:40;;;;;;;1.20;1.10;;;;;;;;;;5079356;28;20468;-75
2021/05/29 13:25:17;;;;;;;1.10;1.00;;;;;;;;;;5075320;28;21074;-75
2021/05/29 13:27:48;;;;;;;1.37;1.07;;;;;;;;;;5076690;28;20471;-76
2021/05/29 13:30:32;;;;;;;1.97;1.47;;;;;;;;;;5092331;28;21003;-76
2021/05/29 13:33:03;;;;;;;1.07;1.07;;;;;;;;;;5090272;28;20535;-73
2021/05/29 13:35:29;;;;;;;1.50;1.40;;;;;;;;;;5074934;28;20433;-74
2021/05/29 13:37:56;;;;;;;1.97;1.77;;;;;;;;;;5099651;28;20443;-72
2021/05/29 13:40:22;;;;;;;1.43;1.00;;;;;;;;;;5097700;27;20440;-74
2021/05/29 13:42:48;;;;;;;1.80;1.23;;;;;;;;;;5086706;28;20463;-74
2021/05/29 13:45:22;;;;;;;1.30;1.20;;;;;;;;;;5101863;28;20428;-74
2021/05/29 13:47:49;;;;;;;1.30;1.13;;;;;;;;;;5075863;28;20948;-75
2021/05/29 13:50:15;;;;;;;1.30;1.20;;;;;;;;;;5081999;28;20793;-73
2021/05/29 13:52:42;;;;;;;1.73;1.63;;;;;;;;;;5082321;28;21008;-73
2021/05/29 13:55:08;;;;;;;1.40;1.30;;;;;;;;;;5092142;28;20429;-71
2021/05/29 13:57:34;;;;;;;1.30;1.20;;;;;;;;;;5088512;28;20992;-73
2021/05/29 14:00:01;;;;;;;2.00;1.80;;;;;;;;;;5075023;28;20989;-73
2021/05/29 14:02:27;;;;;;;3.60;1.37;;;;;;;;;;5092405;28;20459;-74
2021/05/29 14:04:53;;;;;;;1.50;1.30;;;;;;;;;;5067952;28;20800;-74
2021/05/29 14:07:21;;;;;;;1.20;1.10;;;;;;;;;;5094270;27;20464;-73
2021/05/29 14:09:47;;;;;;;2.93;1.30;;;;;;;;;;5077207;28;20440;-75
2021/05/29 14:12:13;;;;;;;1.73;1.63;;;;;;;;;;5073172;28;20577;-75
2021/05/29 14:14:39;;;;;;;1.60;1.50;;;;;;;;;;5100819;28;20829;-74
2021/05/29 14:17:06;;;;;;;1.10;1.10;;;;;;;;;;5078175;28;20865;-74
2021/05/29 14:19:32;;;;;;;1.00;1.00;;;;;;;;;;5082238;28;20436;-73
2021/05/29 14:21:58;;;;;;;2.30;1.30;;;;;;;;;;5092168;28;20468;-73
2021/05/29 14:24:24;;;;;;;1.37;1.20;;;;;;;;;;5093285;28;20452;-73
2021/05/29 14:26:50;;;;;;;1.23;1.13;;;;;;;;;;5095332;28;20994;-72
2021/05/29 14:29:16;;;;;;;1.60;1.40;;;;;;;;;;5085603;27;20458;-75
2021/05/29 14:31:42;;;;;;;1.37;1.27;;;;;;;;;;5073402;28;20444;-74
2021/05/29 14:34:09;;;;;;;2.10;1.90;;;;;;;;;;5085347;28;20436;-74
2021/05/29 14:36:35;;;;;;;1.20;1.13;;;;;;;;;;5081759;28;20436;-74
2021/05/29 14:39:03;;;;;;;1.77;1.10;;;;;;;;;;5077631;28;20428;-73
2021/05/29 14:41:29;;;;;;;1.30;1.07;;;;;;;;;;5079027;28;20452;-74
2021/05/29 14:43:55;;;;;;;1.23;1.10;;;;;;;;;;5086086;28;20436;-74
2021/05/29 14:46:23;;;;;;;2.00;1.57;;;;;;;;;;5082948;28;21192;-73
2021/05/29 14:48:50;;;;;;;1.77;1.67;;;;;;;;;;5094473;28;20539;-74
2021/05/29 14:51:18;;;;;;;2.80;2.30;;;;;;;;;;5079637;28;20855;-74
2021/05/29 14:53:45;;;;;;;1.60;1.40;;;;;;;;;;5084162;28;20523;-73
2021/05/29 14:56:12;;;;;;;1.70;0.97;;;;;;;;;;5078228;28;20468;-72
2021/05/29 14:58:38;;;;;;;1.30;1.30;;;;;;;;;;5071797;28;20536;-74
2021/05/29 15:01:04;;;;;;;1.30;1.20;;;;;;;;;;5078523;28;20538;-75
2021/05/29 15:03:38;;;;;;;1.90;1.10;;;;;;;;;;5076233;28;20448;-73
2021/05/29 15:06:04;;;;;;;1.63;1.53;;;;;;;;;;5077486;28;20864;-76